Time;durP1;ratioP1;P1;durP2;ratioP2;P2;SDS_P1;SDS_P2;PMS_P1;PMS_P2;Temp;Humidity;BMP_temperature;BMP_pressure;BME280_temperature;BME280_humidity;BME280_pressure;Samples;Min_cycle;Max_cycle;Signal;HPM_P1;HPM_P2
2022/05/18 00:01:28;;;;;;;8.98;6.20;;;;;;;10.09;100.00;99200.09;6208925;23;20103;-55
2022/05/18 00:04:13;;;;;;;10.38;6.55;;;;;;;10.01;100.00;99210.00;6219346;23;20026;-61
2022/05/18 00:06:57;;;;;;;9.80;6.45;;;;;;;10.07;100.00;99247.81;6222522;23;20075;-57
2022/05/18 00:09:42;;;;;;;12.00;6.10;;;;;;;10.05;100.00;99235.47;6207580;23;20032;-57
2022/05/18 00:12:27;;;;;;;11.40;6.18;;;;;;;10.11;100.00;99243.28;6220727;23;20027;-57
2022/05/18 00:15:12;;;;;;;9.52;6.00;;;;;;;10.03;100.00;99245.22;6221509;23;20024;-57
2022/05/18 00:17:57;;;;;;;10.43;5.97;;;;;;;10.07;100.00;99252.22;6211611;23;20075;-58
2022/05/18 00:20:41;;;;;;;10.70;5.82;;;;;;;10.06;100.00;99255.78;6211800;23;20055;-59
2022/05/18 00:23:27;;;;;;;10.50;5.43;;;;;;;9.78;100.00;99212.38;6210408;23;20032;-65
2022/05/18 00:26:12;;;;;;;6.85;5.32;;;;;;;9.96;100.00;99254.28;6189096;23;20043;-58
2022/05/18 00:28:57;;;;;;;9.93;5.28;;;;;;;9.69;100.00;99224.03;6196915;23;20105;-57
2022/05/18 00:31:42;;;;;;;6.88;4.65;;;;;;;9.61;100.00;99231.31;6210269;23;20028;-58
2022/05/18 00:34:26;;;;;;;8.95;5.00;;;;;;;9.59;100.00;99228.69;6221017;23;20027;-55
2022/05/18 00:37:11;;;;;;;9.05;5.40;;;;;;;9.69;100.00;99254.97;6167953;23;20036;-56
2022/05/18 00:39:56;;;;;;;5.97;3.97;;;;;;;9.75;100.00;99275.97;6211614;23;20023;-56
2022/05/18 00:42:40;;;;;;;5.68;4.20;;;;;;;9.69;100.00;99282.28;6218835;23;20120;-64
2022/05/18 00:45:26;;;;;;;6.32;4.70;;;;;;;9.58;100.00;99261.38;6210325;23;20478;-57
2022/05/18 00:48:10;;;;;;;;;;;;;;;9.65;100.00;99282.41;6219788;23;20473;-56
2022/05/18 00:50:58;;;;;;;5.50;4.43;;;;;;;9.58;100.00;99293.13;6198831;23;19923;-57
2022/05/18 00:53:50;;;;;;;4.85;3.83;;;;;;;9.57;100.00;99291.41;6221217;23;20031;-58
2022/05/18 00:56:49;;;;;;;6.00;3.92;;;;;;;9.55;100.00;99281.75;6208778;23;20042;-65
2022/05/18 00:59:42;;;;;;;4.60;3.65;;;;;;;9.54;100.00;99287.97;6220043;23;20493;-58
2022/05/18 01:02:29;;;;;;;4.75;3.40;;;;;;;9.46;100.00;99296.06;6221610;23;20027;-58
2022/05/18 01:05:20;;;;;;;4.50;3.08;;;;;;;9.45;100.00;99298.75;6198408;23;20023;-54
2022/05/18 01:08:05;;;;;;;6.07;3.55;;;;;;;9.20;100.00;99263.19;6217526;23;20108;-56
2022/05/18 01:10:49;;;;;;;6.43;3.30;;;;;;;9.34;100.00;99301.63;6228172;23;20063;-55
2022/05/18 01:13:34;;;;;;;3.83;3.00;;;;;;;9.36;100.00;99313.06;6227044;23;20027;-56
2022/05/18 01:16:20;;;;;;;4.75;2.70;;;;;;;9.22;100.00;99301.91;6219231;23;20078;-56
2022/05/18 01:19:14;;;;;;;4.85;3.17;;;;;;;9.27;100.00;99315.91;6219944;23;20031;-65
2022/05/18 01:22:22;;;;;;;3.88;2.45;;;;;;;9.28;100.00;99315.00;6221895;23;20031;-59
2022/05/18 01:25:25;;;;;;;4.35;2.53;;;;;;;9.27;100.00;99309.75;6222279;23;20051;-56
2022/05/18 01:28:10;;;;;;;5.30;2.72;;;;;;;9.26;100.00;99330.03;6220528;23;20149;-59
2022/05/18 01:30:55;;;;;;;5.97;3.15;;;;;;;9.10;100.00;99302.19;6187011;23;20058;-54
2022/05/18 01:33:40;;;;;;;7.50;3.05;;;;;;;9.16;100.00;99327.63;6221686;23;20051;-58
2022/05/18 01:36:24;;;;;;;6.53;3.15;;;;;;;9.13;100.00;99333.84;6208459;23;20075;-56
2022/05/18 01:39:18;;;;;;;4.22;3.20;;;;;;;9.04;100.00;99330.53;6188446;23;20075;-57
2022/05/18 01:42:43;;;;;;;4.38;2.70;;;;;;;9.17;100.00;99337.28;6221092;23;20030;-57
2022/05/18 01:45:28;;;;;;;3.77;2.63;;;;;;;9.09;100.00;99342.75;6210979;23;20032;-57
2022/05/18 01:48:18;;;;;;;4.30;2.75;;;;;;;9.12;100.00;99350.63;6210968;23;20082;-55
2022/05/18 01:51:04;;;;;;;3.70;3.00;;;;;;;9.06;100.00;99356.03;6221257;23;20520;-58
2022/05/18 01:53:49;;;;;;;3.60;2.60;;;;;;;9.03;100.00;99349.94;6209550;23;20023;-56
2022/05/18 01:56:34;;;;;;;3.72;2.92;;;;;;;8.96;100.00;99349.22;6218313;23;20077;-58
2022/05/18 01:59:19;;;;;;;3.92;2.42;;;;;;;9.03;100.00;99363.16;6220666;23;20051;-57
2022/05/18 02:02:06;;;;;;;6.30;2.78;;;;;;;9.02;100.00;99364.94;6165914;23;20441;-57
2022/05/18 02:04:50;;;;;;;4.55;2.50;;;;;;;8.80;100.00;99323.09;6218879;23;20045;-55
2022/05/18 02:07:34;;;;;;;3.80;2.92;;;;;;;8.85;100.00;99337.97;6219298;23;20074;-56
2022/05/18 02:10:19;;;;;;;4.07;2.92;;;;;;;9.07;100.00;99380.72;6208648;23;20031;-63
2022/05/18 02:13:04;;;;;;;4.25;2.97;;;;;;;9.05;100.00;99380.75;6208155;23;20026;-56
2022/05/18 02:15:48;;;;;;;4.43;2.67;;;;;;;9.10;100.00;99378.88;6208066;23;20035;-56
2022/05/18 02:18:32;;;;;;;4.60;2.70;;;;;;;9.05;100.00;99390.44;6210603;23;20031;-57
2022/05/18 02:21:17;;;;;;;4.18;2.50;;;;;;;9.03;100.00;99387.81;6209058;23;20047;-57
2022/05/18 02:24:03;;;;;;;2.97;2.55;;;;;;;9.04;100.00;99386.06;6220366;23;20027;-57
2022/05/18 02:26:48;;;;;;;3.15;2.47;;;;;;;8.98;100.00;99396.78;6220486;23;20027;-55
2022/05/18 02:29:34;;;;;;;2.92;2.47;;;;;;;8.99;100.00;99393.22;6208536;23;20031;-66
2022/05/18 02:32:18;;;;;;;3.72;2.65;;;;;;;8.83;100.00;99367.97;6219410;23;20402;-52
2022/05/18 02:35:04;;;;;;;4.40;2.70;;;;;;;9.08;100.00;99400.97;6206720;23;20070;-54
2022/05/18 02:37:49;;;;;;;4.53;2.67;;;;;;;9.16;100.00;99409.63;6219246;23;20035;-55
2022/05/18 02:40:33;;;;;;;5.88;2.28;;;;;;;9.12;100.00;99400.88;6209315;23;20030;-53
2022/05/18 02:43:18;;;;;;;3.28;2.25;;;;;;;9.07;100.00;99389.50;6210393;23;20031;-57
2022/05/18 02:46:10;;;;;;;2.88;2.45;;;;;;;9.17;100.00;99406.94;6210592;23;20358;-54
2022/05/18 02:48:55;;;;;;;2.88;2.17;;;;;;;9.20;100.00;99416.59;6217086;23;20027;-57
2022/05/18 02:51:40;;;;;;;5.78;2.45;;;;;;;9.20;100.00;99419.22;6210981;23;20368;-56
2022/05/18 02:57:27;;;;;;;5.15;2.13;;;;;;;9.34;100.00;99435.72;6208541;23;20578;-57
2022/05/18 03:00:14;;;;;;;2.88;2.10;;;;;;;9.34;100.00;99433.06;6220377;23;20103;-54
2022/05/18 03:02:58;;;;;;;3.13;2.22;;;;;;;9.36;100.00;99436.53;6217140;23;20031;-56
2022/05/18 03:05:42;;;;;;;2.45;1.90;;;;;;;9.41;100.00;99453.19;6209997;23;20414;-56
2022/05/18 03:08:27;;;;;;;3.03;2.15;;;;;;;9.43;100.00;99454.03;6219953;23;20107;-60
2022/05/18 03:11:13;;;;;;;2.78;1.98;;;;;;;9.40;100.00;99449.69;6209871;23;20406;-60
2022/05/18 03:13:57;;;;;;;3.38;1.73;;;;;;;9.48;100.00;99446.88;6209946;23;20079;-56
2022/05/18 03:16:43;;;;;;;2.95;1.90;;;;;;;9.57;100.00;99448.47;6217760;23;20054;-66
2022/05/18 03:19:28;;;;;;;1.95;1.75;;;;;;;9.66;100.00;99451.78;6219886;23;20493;-57
2022/05/18 03:25:15;;;;;;;2.70;1.70;;;;;;;9.63;100.00;99432.44;6217283;23;20063;-66
2022/05/18 03:27:59;;;;;;;6.67;2.00;;;;;;;9.82;100.00;99463.78;6219704;23;20438;-59
2022/05/18 03:30:44;;;;;;;4.72;1.80;;;;;;;9.89;100.00;99462.72;6207601;23;20343;-57
2022/05/18 03:33:29;;;;;;;3.03;1.92;;;;;;;9.92;100.00;99464.47;6219675;23;20505;-57
2022/05/18 03:36:15;;;;;;;6.57;1.80;;;;;;;9.99;100.00;99468.69;6187248;23;20497;-56
2022/05/18 03:39:01;;;;;;;2.28;1.50;;;;;;;9.86;100.00;99446.94;6219760;23;20036;-56
2022/05/18 03:41:45;;;;;;;2.88;1.73;;;;;;;10.06;100.00;99462.38;6209474;23;20063;-56
2022/05/18 03:44:29;;;;;;;4.50;1.73;;;;;;;10.08;100.00;99464.09;6207342;23;20086;-66
2022/05/18 03:47:14;;;;;;;1.70;1.50;;;;;;;10.20;100.00;99471.75;6218790;23;20027;-58
2022/05/18 03:49:58;;;;;;;2.35;1.65;;;;;;;10.24;100.00;99481.38;6217538;23;20086;-59
2022/05/18 03:52:43;;;;;;;4.82;1.67;;;;;;;10.28;100.00;99475.09;6209445;23;20024;-58
2022/05/18 03:55:27;;;;;;;1.90;1.42;;;;;;;10.02;100.00;99424.47;6210000;23;20031;-61
2022/05/18 03:58:13;;;;;;;1.85;1.58;;;;;;;10.24;100.00;99460.19;6219496;23;20039;-57
2022/05/18 04:01:02;;;;;;;2.20;1.80;;;;;;;10.16;100.00;99458.63;6166118;23;20040;-58
2022/05/18 04:03:47;;;;;;;2.08;1.65;;;;;;;10.42;100.00;99480.97;6163392;23;20130;-61
2022/05/18 04:06:32;;;;;;;3.92;2.60;;;;;;;10.49;100.00;99493.16;6208275;23;20030;-59
2022/05/18 04:09:17;;;;;;;3.33;1.60;;;;;;;10.51;100.00;99496.63;6207381;23;20437;-58
2022/05/18 04:12:02;;;;;;;1.83;1.40;;;;;;;10.52;100.00;99486.91;6196468;23;20078;-59
2022/05/18 04:14:46;;;;;;;2.58;1.35;;;;;;;10.61;100.00;99491.97;6218399;23;20075;-56
2022/05/18 04:17:30;;;;;;;1.83;1.35;;;;;;;10.63;100.00;99498.09;6209395;23;20071;-59
2022/05/18 04:20:19;;;;;;;1.98;1.40;;;;;;;10.53;100.00;99460.38;6219433;23;20024;-60
2022/05/18 04:23:07;;;;;;;2.08;1.48;;;;;;;10.75;100.00;99495.16;6207049;23;20094;-59
2022/05/18 04:25:53;;;;;;;2.08;1.15;;;;;;;10.74;100.00;99498.72;6196836;23;20079;-58
2022/05/18 04:28:38;;;;;;;5.05;1.50;;;;;;;10.79;100.00;99505.66;6219424;23;20501;-57
2022/05/18 04:31:22;;;;;;;2.67;1.30;;;;;;;10.88;100.00;99510.72;6219365;23;20131;-59
2022/05/18 04:34:06;;;;;;;4.32;1.40;;;;;;;10.85;100.00;99505.50;6218068;23;20144;-58
2022/05/18 04:36:52;;;;;;;3.03;1.15;;;;;;;10.75;100.00;99477.47;6217441;23;20371;-64
2022/05/18 04:39:36;;;;;;;1.90;1.20;;;;;;;10.87;100.00;99498.38;6218910;23;20358;-60
2022/05/18 04:42:22;;;;;;;1.65;1.15;;;;;;;11.05;100.00;99531.53;6216560;23;20031;-57
2022/05/18 04:45:10;;;;;;;1.77;1.25;;;;;;;11.14;100.00;99529.50;6219301;23;20028;-59
2022/05/18 04:47:55;;;;;;;3.05;1.10;;;;;;;11.14;100.00;99529.50;6207674;23;20028;-57
2022/05/18 04:50:39;;;;;;;3.40;1.10;;;;;;;11.22;100.00;99518.66;6207356;23;20107;-59
2022/05/18 04:53:24;;;;;;;1.75;1.08;;;;;;;11.26;100.00;99529.19;6220994;23;20083;-58
2022/05/18 04:56:08;;;;;;;1.23;1.05;;;;;;;11.40;100.00;99531.47;6207033;23;20032;-61
2022/05/18 04:58:53;;;;;;;2.40;1.20;;;;;;;11.38;100.00;99512.03;6220747;23;20445;-56
2022/05/18 05:01:39;;;;;;;2.25;1.00;;;;;;;11.55;100.00;99539.03;6195344;23;20062;-59
2022/05/18 05:04:24;;;;;;;1.85;1.20;;;;;;;11.64;100.00;99546.75;6219531;23;20028;-58
2022/05/18 05:07:09;;;;;;;2.03;1.33;;;;;;;11.58;100.00;99515.91;6220759;23;20397;-54
2022/05/18 05:09:52;;;;;;;2.90;1.10;;;;;;;11.78;100.00;99541.91;6220804;23;20032;-59
2022/05/18 05:12:37;;;;;;;2.03;0.88;;;;;;;11.83;100.00;99545.34;6210857;23;20035;-59
2022/05/18 05:15:21;;;;;;;1.40;0.98;;;;;;;11.93;100.00;99547.69;6208360;23;20032;-66
2022/05/18 05:18:06;;;;;;;2.92;1.48;;;;;;;11.90;100.00;99544.22;6220496;23;20031;-58
2022/05/18 05:20:50;;;;;;;1.83;1.00;;;;;;;11.85;100.00;99532.88;6217112;23;20466;-61
2022/05/18 05:23:35;;;;;;;3.15;1.13;;;;;;;12.04;100.00;99552.69;6209381;23;20496;-58
2022/05/18 05:26:19;;;;;;;3.40;1.35;;;;;;;11.97;100.00;99540.47;6210256;23;20441;-60
2022/05/18 05:29:05;;;;;;;4.25;1.10;;;;;;;12.01;100.00;99558.06;6209162;23;20111;-58
2022/05/18 05:31:49;;;;;;;3.20;1.00;;;;;;;11.89;100.00;99540.72;6220334;23;20028;-59
2022/05/18 05:34:34;;;;;;;1.55;1.20;;;;;;;12.03;100.00;99562.41;6219120;23;20031;-65
2022/05/18 05:37:19;;;;;;;6.13;1.17;;;;;;;12.12;100.00;99551.53;6166735;23;20032;-58
2022/05/18 05:40:06;;;;;;;2.40;1.15;;;;;;;12.23;100.00;99573.34;6206415;23;20107;-58
2022/05/18 05:42:50;;;;;;;4.55;1.10;;;;;;;12.12;100.00;99535.59;6218964;23;20401;-58
2022/05/18 05:45:35;;;;;;;1.98;1.02;;;;;;;12.24;100.00;99564.47;6220252;23;20601;-58
2022/05/18 05:48:19;;;;;;;4.75;1.10;;;;;;;12.33;100.00;99573.94;6218873;23;20032;-60
2022/05/18 05:51:04;;;;;;;1.77;1.17;;;;;;;12.36;100.00;99574.75;6220485;23;20373;-57
2022/05/18 05:53:50;;;;;;;4.53;1.10;;;;;;;12.41;100.00;99570.16;6218781;23;20107;-62
2022/05/18 05:56:35;;;;;;;1.33;1.00;;;;;;;12.32;100.00;99569.53;6210505;23;20082;-55
2022/05/18 05:59:21;;;;;;;2.80;1.25;;;;;;;12.38;100.00;99575.53;6207597;23;20028;-60
2022/05/18 06:02:09;;;;;;;2.28;1.35;;;;;;;12.49;100.00;99573.44;6220398;23;20028;-57
2022/05/18 06:04:55;;;;;;;3.60;1.40;;;;;;;12.54;100.00;99565.31;6210186;23;20087;-59
2022/05/18 06:07:39;;;;;;;2.58;1.23;;;;;;;12.59;100.00;99560.72;6220263;23;20024;-72
2022/05/18 06:10:23;;;;;;;3.17;1.20;;;;;;;12.78;100.00;99567.22;6221628;23;20106;-57
2022/05/18 06:13:10;;;;;;;2.65;1.10;;;;;;;12.88;100.00;99580.16;6208180;23;20031;-57
2022/05/18 06:15:55;;;;;;;4.47;1.30;;;;;;;13.00;100.00;99563.84;6208698;23;20027;-56
2022/05/18 06:18:40;;;;;;;;;;;;;;;13.21;100.00;99581.75;6219610;23;20381;-57
2022/05/18 06:21:24;;;;;;;8.40;1.67;;;;;;;13.31;100.00;99582.31;6219251;23;19919;-59
2022/05/18 06:24:10;;;;;;;6.95;1.55;;;;;;;13.40;100.00;99584.66;6220508;23;20032;-57
2022/05/18 06:26:58;;;;;;;2.03;1.10;;;;;;;13.53;100.00;99597.50;6210262;23;20051;-65
2022/05/18 06:29:44;;;;;;;6.90;1.20;;;;;;;13.53;100.00;99591.31;6220876;23;20031;-58
2022/05/18 06:32:28;;;;;;;3.20;1.15;;;;;;;13.59;100.00;99577.75;6217603;23;20517;-58
2022/05/18 06:35:13;;;;;;;3.75;1.48;;;;;;;13.63;100.00;99595.38;6219491;23;20075;-59
2022/05/18 06:37:58;;;;;;;;;;;;;;;13.76;100.00;99594.03;6209406;23;20052;-56
2022/05/18 06:43:45;;;;;;;3.58;0.90;;;;;;;13.97;100.00;99589.72;6209898;23;20030;-59
2022/05/18 06:46:32;;;;;;;1.13;1.02;;;;;;;13.98;100.00;99600.34;6219431;23;20036;-57
2022/05/18 06:49:17;;;;;;;1.30;1.00;;;;;;;13.75;100.00;99571.84;6208328;23;20031;-62
2022/05/18 06:52:03;;;;;;;2.55;0.95;;;;;;;13.84;100.00;99606.16;6208508;23;20047;-58
2022/05/18 06:54:48;;;;;;;3.22;0.90;;;;;;;13.94;100.00;99596.88;6207267;23;20028;-67
2022/05/18 06:57:35;;;;;;;0.50;0.50;;;;;;;14.07;100.00;99572.44;6218456;23;20023;-57
2022/05/18 07:00:20;;;;;;;1.73;0.70;;;;;;;14.53;100.00;99608.06;6206800;23;20074;-55
2022/05/18 07:03:05;;;;;;;2.17;0.77;;;;;;;14.93;100.00;99604.69;6207973;23;20067;-59
2022/05/18 07:05:49;;;;;;;1.42;0.70;;;;;;;15.46;100.00;99614.09;6210083;23;20094;-58
2022/05/18 07:08:34;;;;;;;1.58;0.90;;;;;;;15.62;100.00;99616.03;6218750;23;20023;-60
2022/05/18 07:11:18;;;;;;;;;;;;;;;15.69;100.00;99611.28;6220331;23;20034;-60
2022/05/18 07:14:05;;;;;;;2.53;0.88;;;;;;;15.58;100.00;99621.59;6217179;23;20340;-64
2022/05/18 07:16:49;;;;;;;5.28;1.25;;;;;;;15.46;100.00;99617.59;6209644;23;20350;-60
2022/05/18 07:19:33;;;;;;;4.63;0.80;;;;;;;15.28;100.00;99609.47;6217727;23;20023;-65
2022/05/18 07:22:18;;;;;;;5.28;0.98;;;;;;;15.16;100.00;99626.00;6219730;23;20042;-60
2022/05/18 07:25:03;;;;;;;1.52;0.90;;;;;;;15.80;100.00;99628.63;6209833;23;20170;-61
2022/05/18 07:27:48;;;;;;;4.35;0.75;;;;;;;16.44;100.00;99629.31;6218100;23;20508;-58
2022/05/18 07:30:33;;;;;;;0.73;0.73;;;;;;;16.95;100.00;99616.16;6219058;23;20078;-59
2022/05/18 07:33:20;;;;;;;;;;;;;;;17.77;100.00;99628.06;6217674;23;20070;-63
2022/05/18 07:36:06;;;;;;;1.30;0.70;;;;;;;18.20;100.00;99633.91;6166280;23;19926;-61
2022/05/18 07:38:50;;;;;;;2.25;0.70;;;;;;;19.02;93.80;99623.97;6207901;23;20047;-59
2022/05/18 07:41:36;;;;;;;1.65;0.60;;;;;;;18.97;93.59;99626.03;6216272;23;20059;-60
2022/05/18 07:44:21;;;;;;;4.25;0.70;;;;;;;18.57;89.33;99631.88;6217107;23;20476;-60
2022/05/18 07:47:07;;;;;;;3.83;0.52;;;;;;;17.53;93.02;99601.66;6207533;23;20063;-64
2022/05/18 07:49:52;;;;;;;1.52;0.50;;;;;;;18.28;88.09;99620.94;6208258;23;20104;-60
2022/05/18 07:52:37;;;;;;;2.72;0.70;;;;;;;19.49;80.66;99629.31;6216699;23;20036;-61
2022/05/18 07:55:21;;;;;;;5.18;0.60;;;;;;;20.62;75.03;99625.97;6218957;23;20366;-57
2022/05/18 07:58:08;;;;;;;0.75;0.60;;;;;;;21.72;69.59;99625.00;6218163;23;20094;-60
2022/05/18 08:00:53;;;;;;;1.35;0.50;;;;;;;22.52;62.96;99627.53;6209636;23;20102;-60
2022/05/18 08:03:38;;;;;;;;;;;;;;;23.08;67.75;99638.69;6209912;23;20043;-58
2022/05/18 08:06:22;;;;;;;2.13;0.50;;;;;;;21.90;61.10;99632.72;6206605;23;19927;-67
2022/05/18 08:09:07;;;;;;;4.43;0.50;;;;;;;19.68;66.80;99593.19;6209463;23;20095;-57
2022/05/18 08:15:06;;;;;;;2.10;0.60;;;;;;;18.67;70.59;99643.84;6216662;23;20516;-66
2022/05/18 08:17:51;;;;;;;1.77;0.40;;;;;;;21.30;61.21;99644.88;6188592;23;20119;-59
2022/05/18 08:20:39;;;;;;;1.13;0.40;;;;;;;23.14;54.63;99646.34;6196381;23;20051;-59
2022/05/18 08:23:25;;;;;;;1.98;0.50;;;;;;;23.85;47.10;99635.63;6207225;23;20026;-58
2022/05/18 08:26:11;;;;;;;3.28;1.30;;;;;;;25.10;44.97;99651.81;6219300;23;20031;-60
2022/05/18 08:28:55;;;;;;;1.70;0.60;;;;;;;26.10;40.49;99648.91;6208196;23;20561;-64
2022/05/18 08:31:42;;;;;;;2.28;0.88;;;;;;;25.76;41.45;99634.56;6219269;23;20031;-66
2022/05/18 08:34:27;;;;;;;2.40;0.70;;;;;;;24.36;47.61;99648.75;6166336;23;20187;-60
2022/05/18 08:37:11;;;;;;;;;;;;;;;24.55;54.00;99637.31;6211274;23;20086;-59
2022/05/18 08:39:55;;;;;;;2.70;0.80;;;;;;;23.31;55.16;99642.47;6210807;23;19919;-61
2022/05/18 08:42:41;;;;;;;3.13;0.60;;;;;;;24.40;46.64;99643.97;6211091;23;20370;-60
2022/05/18 08:45:31;;;;;;;3.20;0.70;;;;;;;26.03;43.05;99653.13;6221407;23;20043;-59
2022/05/18 08:48:42;;;;;;;2.13;0.80;;;;;;;24.73;44.14;99650.31;6218504;23;20027;-57
2022/05/18 08:51:51;;;;;;;1.40;0.50;;;;;;;24.19;46.56;99653.75;6218554;23;20074;-58
2022/05/18 08:54:48;;;;;;;3.17;0.68;;;;;;;26.29;42.61;99659.94;6217067;23;20031;-60
2022/05/18 08:57:54;;;;;;;6.30;0.77;;;;;;;25.97;42.54;99629.19;6220901;23;20075;-59
2022/05/18 09:00:44;;;;;;;7.55;0.88;;;;;;;25.97;38.25;99662.66;6219510;23;20028;-60
2022/05/18 09:03:36;;;;;;;6.43;0.70;;;;;;;27.14;34.49;99660.47;6211018;23;20047;-59
2022/05/18 09:06:45;;;;;;;2.90;0.50;;;;;;;27.56;35.08;99658.50;6208691;23;20032;-58
2022/05/18 09:12:52;;;;;;;5.80;0.75;;;;;;;28.77;30.00;99666.00;6208383;23;20092;-58
2022/05/18 09:16:06;;;;;;;1.63;0.70;;;;;;;28.94;31.48;99658.88;6209456;23;20410;-60
2022/05/18 09:19:13;;;;;;;1.48;0.77;;;;;;;29.22;33.11;99647.03;6219753;23;20039;-59
2022/05/18 09:22:29;;;;;;;0.70;0.45;;;;;;;29.03;31.66;99650.69;6220564;22;20081;-56
2022/05/18 09:25:46;;;;;;;5.10;0.95;;;;;;;27.74;32.57;99660.38;6197210;23;20035;-59
2022/05/18 09:28:58;;;;;;;2.38;0.93;;;;;;;27.64;34.12;99662.22;6251091;23;20058;-60
2022/05/18 09:31:51;;;;;;;2.53;0.60;;;;;;;27.23;33.25;99654.22;6250953;23;20052;-57
2022/05/18 09:34:48;;;;;;;3.20;0.60;;;;;;;27.11;32.87;99649.84;6239471;23;20031;-61
2022/05/18 09:37:54;;;;;;;1.70;0.50;;;;;;;27.16;35.01;99649.41;6216798;23;20535;-61
2022/05/18 09:40:45;;;;;;;1.50;0.65;;;;;;;28.53;29.82;99665.63;6226109;23;20039;-59
2022/05/18 09:43:53;;;;;;;4.35;0.68;;;;;;;28.37;32.58;99648.94;6241123;23;20109;-59
2022/05/18 09:46:42;;;;;;;3.35;0.80;;;;;;;29.00;28.48;99642.78;6238424;23;20028;-62
2022/05/18 09:49:32;;;;;;;3.20;0.70;;;;;;;28.94;29.22;99651.56;6239811;23;20073;-60
2022/05/18 09:52:26;;;;;;;1.95;0.70;;;;;;;30.31;27.24;99662.31;6238587;23;20440;-68
2022/05/18 09:55:16;;;;;;;0.90;0.50;;;;;;;28.95;28.25;99652.44;6227496;23;20039;-61
2022/05/18 09:58:13;;;;;;;1.48;0.60;;;;;;;29.28;28.53;99650.00;6250689;23;20030;-61
2022/05/18 10:10:38;;;;;;;3.70;0.80;;;;;;;29.33;28.13;99653.16;6250685;23;20031;-59
2022/05/18 10:13:31;;;;;;;3.42;0.77;;;;;;;29.11;28.06;99645.34;6251036;23;20058;-59
2022/05/18 10:16:31;;;;;;;6.83;0.77;;;;;;;29.27;27.49;99644.72;6218130;23;20046;-60
2022/05/18 10:19:37;;;;;;;1.38;0.60;;;;;;;30.60;27.50;99642.88;6239710;23;20027;-60
2022/05/18 10:22:26;;;;;;;3.20;0.60;;;;;;;28.62;27.33;99631.09;6248460;23;20031;-60
2022/05/18 10:25:25;;;;;;;3.42;0.57;;;;;;;27.79;30.83;99635.41;6238798;23;20343;-60
2022/05/18 10:28:39;;;;;;;2.30;0.65;;;;;;;28.79;29.82;99642.13;6206294;23;20077;-59
2022/05/18 10:31:40;;;;;;;2.85;0.57;;;;;;;29.70;27.33;99650.38;6240437;23;20030;-60
2022/05/18 10:34:28;;;;;;;2.40;0.80;;;;;;;29.76;28.04;99659.84;6227844;23;20365;-59
2022/05/18 10:37:25;;;;;;;6.07;0.90;;;;;;;30.38;27.50;99643.38;6248173;23;20070;-60
2022/05/18 10:40:14;;;;;;;4.32;0.90;;;;;;;30.68;25.61;99649.28;6250534;23;20023;-63
2022/05/18 10:43:17;;;;;;;3.33;0.70;;;;;;;31.39;26.52;99641.69;6239253;23;20062;-61
2022/05/18 10:46:16;;;;;;;4.22;0.60;;;;;;;28.70;28.40;99631.22;6250939;23;20329;-58
2022/05/18 10:49:21;;;;;;;4.90;0.60;;;;;;;27.51;32.26;99630.78;6247659;23;20429;-63
2022/05/18 10:52:27;;;;;;;2.70;0.90;;;;;;;27.77;31.59;99649.19;6249495;23;20027;-69
2022/05/18 10:55:16;;;;;;;2.92;0.52;;;;;;;28.16;31.14;99644.66;6250274;23;20397;-63
2022/05/18 10:58:21;;;;;;;2.97;0.55;;;;;;;27.96;32.55;99640.22;6174864;23;20441;-63
2022/05/18 11:01:11;;;;;;;3.70;0.70;;;;;;;26.73;35.06;99632.47;6250446;23;20031;-61
2022/05/18 11:03:56;;;;;;;4.53;0.70;;;;;;;24.92;40.59;99626.16;6215040;23;20065;-66
2022/05/18 11:06:42;;;;;;;4.30;0.70;;;;;;;23.49;44.15;99617.59;6240234;23;20027;-61
2022/05/18 11:09:30;;;;;;;2.83;0.85;;;;;;;24.27;45.37;99616.06;6238269;23;20142;-61
2022/05/18 11:12:45;;;;;;;2.00;0.80;;;;;;;24.32;47.33;99619.28;6240185;23;20027;-59
2022/05/18 11:15:51;;;;;;;3.33;0.90;;;;;;;24.09;46.56;99623.78;6250235;23;20054;-60
2022/05/18 11:18:38;;;;;;;3.20;0.70;;;;;;;23.24;48.22;99581.66;6250106;23;20187;-59
2022/05/18 11:21:48;;;;;;;0.80;0.57;;;;;;;22.50;52.12;99632.19;6220238;23;20031;-59
2022/05/18 11:24:45;;;;;;;2.60;0.90;;;;;;;22.35;54.24;99652.13;6189869;23;20410;-61
2022/05/18 11:27:58;;;;;;;2.75;0.57;;;;;;;22.32;52.73;99652.34;6187497;23;20493;-58
2022/05/18 11:30:59;;;;;;;2.03;0.80;;;;;;;22.02;53.68;99640.00;6125171;23;20028;-60
2022/05/18 11:33:56;;;;;;;4.97;1.10;;;;;;;22.19;55.17;99652.31;6125564;23;20118;-60
2022/05/18 11:37:17;;;;;;;4.97;1.25;;;;;;;22.65;54.39;99647.28;6125445;23;20033;-59
2022/05/18 11:40:24;;;;;;;2.50;0.70;;;;;;;22.88;51.77;99631.16;6106196;23;20028;-59
2022/05/18 11:43:39;;;;;;;2.88;0.73;;;;;;;22.39;53.85;99642.84;6116800;23;20137;-60
2022/05/18 11:46:33;;;;;;;3.05;1.00;;;;;;;21.79;54.21;99607.41;6126484;23;20376;-60
2022/05/18 11:49:25;;;;;;;2.22;0.90;;;;;;;21.59;56.43;99641.13;6127283;23;20033;-58
2022/05/18 11:52:31;;;;;;;2.85;0.80;;;;;;;21.58;56.89;99627.72;6103989;23;20394;-59
2022/05/18 11:55:24;;;;;;;3.13;0.90;;;;;;;21.23;56.28;99602.22;6114912;23;20032;-62
2022/05/18 11:58:46;;;;;;;4.50;0.70;;;;;;;21.23;58.03;99632.75;6127010;23;20106;-61
2022/05/18 12:01:51;;;;;;;2.25;0.70;;;;;;;20.85;60.92;99626.22;6116956;23;20029;-60
2022/05/18 12:05:13;;;;;;;3.17;0.70;;;;;;;20.51;63.70;99631.16;6129192;23;20029;-59
2022/05/18 12:08:35;;;;;;;3.22;0.70;;;;;;;20.46;62.79;99633.28;6188358;23;20120;-59
2022/05/18 12:11:23;;;;;;;1.45;0.77;;;;;;;20.15;62.02;99593.03;6178785;23;20032;-58
2022/05/18 12:14:30;;;;;;;2.25;1.17;;;;;;;20.06;64.36;99636.66;6179800;23;20103;-62
2022/05/18 12:17:27;;;;;;;1.38;0.55;;;;;;;19.68;66.45;99627.28;6191063;23;20028;-62
2022/05/18 12:20:17;;;;;;;5.85;0.95;;;;;;;19.62;68.80;99631.22;6169209;23;20351;-64
2022/05/18 12:23:06;;;;;;;1.08;0.75;;;;;;;19.43;70.24;99608.19;6215183;23;20111;-66
2022/05/18 12:25:51;;;;;;;2.35;0.80;;;;;;;19.82;69.62;99630.91;6241612;23;20027;-63
2022/05/18 12:28:37;;;;;;;1.55;0.70;;;;;;;19.89;66.50;99620.66;6241591;23;20034;-66
2022/05/18 12:31:22;;;;;;;2.42;0.80;;;;;;;19.77;65.49;99613.28;6242211;23;20031;-58
2022/05/18 12:34:20;;;;;;;1.58;0.75;;;;;;;19.92;66.81;99641.97;6250956;23;20046;-59
2022/05/18 12:37:13;;;;;;;2.63;0.73;;;;;;;19.72;68.67;99637.81;6239191;23;20023;-59
2022/05/18 12:40:27;;;;;;;1.05;0.65;;;;;;;19.49;68.33;99638.28;6229103;23;20082;-59
2022/05/18 12:43:24;;;;;;;2.38;0.68;;;;;;;18.97;71.37;99582.16;6241414;23;20022;-60
2022/05/18 12:46:14;;;;;;;6.32;0.90;;;;;;;19.14;71.93;99612.50;6251420;22;20035;-63
2022/05/18 12:50:02;;;;;;;2.80;0.75;;;;;;;19.44;72.72;99644.88;6259106;22;20077;-60
2022/05/18 12:52:58;;;;;;;4.45;1.00;;;;;;;19.65;68.96;99644.50;6281947;22;20042;-61
2022/05/18 12:55:59;;;;;;;3.40;1.00;;;;;;;19.82;68.76;99638.97;6271420;22;20416;-59
2022/05/18 12:58:53;;;;;;;1.77;1.00;;;;;;;19.83;67.00;99637.16;6282333;22;20110;-60
2022/05/18 13:01:40;;;;;;;2.08;0.70;;;;;;;19.50;62.95;99640.00;6257396;22;20102;-60
2022/05/18 13:04:24;;;;;;;1.63;0.80;;;;;;;19.70;64.41;99644.22;6271647;22;20030;-58
2022/05/18 13:07:27;;;;;;;1.42;0.90;;;;;;;19.54;59.16;99632.63;6282294;22;20109;-59
2022/05/18 13:10:16;;;;;;;3.28;0.80;;;;;;;18.83;59.21;99600.91;6246200;22;20033;-59
2022/05/18 13:13:25;;;;;;;4.65;0.90;;;;;;;18.92;59.43;99608.44;6258811;22;20077;-64
2022/05/18 13:16:09;;;;;;;2.38;0.68;;;;;;;18.86;55.82;99630.28;6248948;22;20038;-59
2022/05/18 13:18:59;;;;;;;2.33;0.50;;;;;;;19.04;55.81;99634.63;6282264;22;20113;-60
2022/05/18 13:21:54;;;;;;;1.80;0.57;;;;;;;19.19;57.33;99648.06;6271244;22;20034;-66
2022/05/18 13:24:43;;;;;;;1.65;0.63;;;;;;;19.39;55.85;99649.66;6248521;22;20027;-60
2022/05/18 13:27:46;;;;;;;1.27;0.65;;;;;;;19.46;55.71;99646.50;6271121;22;20031;-57
2022/05/18 13:30:53;;;;;;;4.95;0.80;;;;;;;19.56;60.45;99654.91;6255672;22;20029;-61
2022/05/18 13:33:50;;;;;;;9.75;0.90;;;;;;;19.53;60.45;99649.72;6269272;22;20069;-61
2022/05/18 13:36:46;;;;;;;4.68;0.95;;;;;;;19.39;58.62;99636.22;6271860;22;20126;-60
2022/05/18 13:39:37;;;;;;;2.70;0.90;;;;;;;19.45;59.24;99651.97;6282300;22;20523;-62
2022/05/18 13:42:28;;;;;;;3.70;1.00;;;;;;;19.58;60.24;99653.03;6248187;22;20049;-61
2022/05/18 13:45:15;;;;;;;4.13;0.70;;;;;;;19.28;61.23;99639.50;6258764;22;20480;-60